Time;durP1;ratioP1;P1;durP2;ratioP2;P2;SDS_P1;SDS_P2;PMS_P1;PMS_P2;Temp;Humidity;BMP_temperature;BMP_pressure;BME280_temperature;BME280_humidity;BME280_pressure;Samples;Min_cycle;Max_cycle;Signal;HPM_P1;HPM_P2
2022/05/05 00:02:20;;;;;;;10.85;5.07;;;12.10;93.00;;;9.57;96.68;100874.56;5014739;28;20100;-72
2022/05/05 00:04:47;;;;;;;;;;;12.20;93.70;;;9.52;97.71;100879.63;5030905;28;20041;-72
2022/05/05 00:07:17;;;;;;;11.95;4.75;;;12.20;93.80;;;9.52;97.45;100877.78;5032198;28;19929;-72
2022/05/05 00:09:54;;;;;;;11.43;5.18;;;12.20;93.90;;;9.54;98.10;100875.75;5030280;28;20049;-72
2022/05/05 00:15:10;;;;;;;12.98;5.20;;;12.20;94.30;;;9.59;96.42;100875.22;5031883;28;20042;-72
2022/05/05 00:17:38;;;;;;;10.40;5.50;;;12.20;94.00;;;9.61;96.14;100875.91;5031798;28;20541;-72
2022/05/05 00:20:10;;;;;;;11.57;5.47;;;12.20;93.90;;;9.58;96.84;100870.84;5032557;28;20124;-72
2022/05/05 00:22:38;;;;;;;14.07;5.97;;;12.20;93.80;;;9.53;97.44;100868.59;5032121;28;20041;-72
2022/05/05 00:25:05;;;;;;;11.40;5.45;;;12.20;94.10;;;9.54;97.72;100869.47;5032020;28;20045;-73
2022/05/05 00:27:38;;;;;;;12.83;5.73;;;12.20;94.30;;;9.55;98.36;100865.72;5026033;28;20076;-72
2022/05/05 00:30:13;;;;;;;10.10;5.03;;;12.20;94.50;;;9.59;98.21;100864.38;5032034;28;20047;-72
2022/05/05 00:32:44;;;;;;;18.27;5.53;;;12.20;94.50;;;9.58;97.51;100866.25;5031784;28;20041;-72
2022/05/05 00:35:12;;;;;;;14.18;5.65;;;12.30;94.50;;;9.56;98.42;100856.56;5031662;28;20120;-73
2022/05/05 00:37:43;;;;;;;11.65;5.03;;;12.20;94.70;;;9.56;96.86;100862.00;5031503;28;20525;-72
2022/05/05 00:40:11;;;;;;;15.32;5.45;;;12.30;94.30;;;9.57;97.58;100860.97;5031041;28;20116;-72
2022/05/05 00:42:41;;;;;;;11.38;5.32;;;12.30;94.30;;;9.55;97.35;100863.00;5031579;28;20771;-73
2022/05/05 00:45:13;;;;;;;12.35;5.93;;;12.20;94.40;;;9.63;97.64;100857.56;5032051;28;20097;-72
2022/05/05 00:47:41;;;;;;;13.13;5.35;;;12.20;94.40;;;9.67;98.44;100858.94;5030553;28;20056;-72
2022/05/05 00:50:13;;;;;;;10.20;5.33;;;12.20;94.90;;;9.62;99.07;100866.75;5030708;28;20046;-72
2022/05/05 00:52:45;;;;;;;12.10;5.22;;;12.30;95.30;;;9.62;99.54;100865.91;5031321;28;20038;-72
2022/05/05 00:55:12;;;;;;;9.93;5.30;;;12.30;95.50;;;9.63;100.00;100864.88;5031896;28;20096;-72
2022/05/05 00:57:44;;;;;;;11.50;5.13;;;12.30;96.00;;;9.64;100.00;100866.59;5025169;28;20041;-72
2022/05/05 01:00:15;;;;;;;;;;;12.30;96.00;;;9.56;100.00;100868.28;5032002;28;20132;-72
2022/05/05 01:02:42;;;;;;;11.30;5.32;;;12.30;96.20;;;9.56;100.00;100867.44;5031361;28;19921;-72
2022/05/05 01:05:10;;;;;;;10.20;5.38;;;12.30;96.20;;;9.54;100.00;100864.88;5030860;28;20038;-72
2022/05/05 01:07:45;;;;;;;12.23;5.90;;;12.30;96.40;;;9.57;100.00;100869.97;5028211;28;20132;-72
2022/05/05 01:10:18;;;;;;;11.25;5.35;;;12.30;96.30;;;9.58;100.00;100865.41;5011783;28;20096;-72
2022/05/05 01:12:54;;;;;;;10.80;5.57;;;12.30;96.60;;;9.58;100.00;100870.84;5029200;28;20394;-72
2022/05/05 01:15:21;;;;;;;9.25;5.32;;;12.30;96.50;;;9.67;100.00;100863.50;5028678;28;20520;-72
2022/05/05 01:17:51;;;;;;;12.88;5.88;;;12.30;96.60;;;9.71;100.00;100870.31;5031028;28;20049;-72
2022/05/05 01:20:30;;;;;;;11.00;5.57;;;12.30;97.00;;;9.68;100.00;100867.94;5030646;28;20540;-72
2022/05/05 01:23:16;;;;;;;12.63;5.40;;;12.30;97.50;;;9.65;100.00;100865.56;5031345;28;20053;-72
2022/05/05 01:28:31;;;;;;;16.30;5.38;;;12.30;97.80;;;9.57;100.00;100871.84;5026360;28;20057;-72
2022/05/05 01:31:02;;;;;;;12.23;5.10;;;12.30;97.60;;;9.61;100.00;100870.47;5021840;28;20042;-72
2022/05/05 01:33:33;;;;;;;10.50;4.82;;;12.30;97.40;;;9.61;100.00;100870.47;5029533;28;20037;-72
2022/05/05 01:36:01;;;;;;;12.95;5.82;;;12.30;97.40;;;9.61;100.00;100875.91;5021913;28;20149;-73
2022/05/05 01:38:38;;;;;;;12.85;5.40;;;12.30;97.40;;;9.65;100.00;100873.72;5020659;28;20045;-72
2022/05/05 01:41:06;;;;;;;17.00;5.45;;;12.30;97.50;;;9.62;100.00;100872.19;5029746;28;20061;-72
2022/05/05 01:43:41;;;;;;;9.43;4.85;;;12.30;97.50;;;9.64;100.00;100872.03;5030535;28;20410;-73
2022/05/05 01:46:09;;;;;;;15.88;5.22;;;12.30;97.60;;;9.59;100.00;100873.38;5024543;28;20045;-72
2022/05/05 01:48:36;;;;;;;12.77;5.60;;;12.20;97.90;;;9.60;100.00;100879.66;5028014;28;20053;-72
2022/05/05 01:51:08;;;;;;;11.20;5.43;;;12.20;98.10;;;9.61;100.00;100880.50;5030744;28;20054;-72
2022/05/05 01:53:41;;;;;;;13.73;6.05;;;12.30;98.00;;;9.57;100.00;100877.28;5029614;28;20048;-72
2022/05/05 01:56:12;;;;;;;15.60;5.60;;;12.20;98.10;;;9.56;100.00;100876.44;5030610;28;20052;-72
2022/05/05 01:58:44;;;;;;;;;;;12.20;98.20;;;9.60;100.00;100879.66;5030445;28;20128;-72
2022/05/05 02:01:16;;;;;;;8.95;4.80;;;12.20;98.10;;;9.60;100.00;100879.66;5030443;28;19932;-72
2022/05/05 02:03:45;;;;;;;14.95;5.93;;;12.30;98.10;;;9.64;100.00;100880.19;5015485;28;20071;-72
2022/05/05 02:06:16;;;;;;;15.23;5.90;;;12.30;98.30;;;9.68;100.00;100882.38;5029533;28;20489;-72
2022/05/05 02:08:49;;;;;;;15.32;5.57;;;12.20;98.00;;;9.66;100.00;100881.69;5029833;28;20041;-72
2022/05/05 02:11:18;;;;;;;11.32;5.55;;;12.20;98.10;;;9.65;100.00;100885.41;5030461;28;20041;-72
2022/05/05 02:13:47;;;;;;;14.18;5.90;;;12.30;98.50;;;9.62;100.00;100885.78;5030130;28;20048;-72
2022/05/05 02:16:27;;;;;;;11.38;5.75;;;12.30;98.60;;;9.61;100.00;100884.06;5030271;28;20049;-72
2022/05/05 02:18:55;;;;;;;10.50;5.22;;;12.30;98.50;;;9.64;100.00;100886.44;5029188;28;20046;-73
2022/05/05 02:21:25;;;;;;;10.57;5.65;;;12.30;98.50;;;9.61;100.00;100892.22;5027628;28;20048;-72
2022/05/05 02:23:58;;;;;;;11.52;5.50;;;12.30;98.80;;;9.61;100.00;100892.22;5029912;28;20038;-72
2022/05/05 02:26:30;;;;;;;10.60;5.78;;;12.30;99.00;;;9.55;100.00;100892.91;5029131;28;20034;-72
2022/05/05 02:29:02;;;;;;;10.80;6.10;;;12.30;99.00;;;9.55;100.00;100888.31;5029907;28;20119;-72
2022/05/05 02:31:31;;;;;;;13.32;5.50;;;12.30;99.10;;;9.54;100.00;100893.94;5028700;28;20143;-72
2022/05/05 02:34:03;;;;;;;16.75;5.80;;;12.30;99.00;;;9.49;100.00;100890.88;5029335;28;20048;-72
2022/05/05 02:39:17;;;;;;;15.45;5.38;;;12.30;99.00;;;9.41;100.00;100894.41;5016690;28;19932;-72
2022/05/05 02:41:52;;;;;;;12.00;5.53;;;12.30;99.30;;;9.42;100.00;100892.53;5029779;28;20505;-72
2022/05/05 02:44:20;;;;;;;14.93;6.10;;;12.20;99.40;;;9.42;100.00;100895.25;5020699;28;20120;-72
2022/05/05 02:46:47;;;;;;;11.70;5.80;;;12.20;99.40;;;9.41;100.00;100890.88;5028121;28;20472;-72
2022/05/05 02:49:14;;;;;;;11.95;5.53;;;12.20;99.90;;;9.44;100.00;100896.78;5028264;28;20073;-72
2022/05/05 02:51:45;;;;;;;10.93;6.18;;;12.20;99.90;;;9.36;100.00;100897.63;5025168;28;20045;-72
2022/05/05 02:57:04;;;;;;;11.65;5.75;;;12.20;99.90;;;9.30;100.00;100898.28;5029510;28;20509;-71
2022/05/05 02:59:39;;;;;;;11.73;6.18;;;12.10;99.90;;;9.21;100.00;100896.56;5029405;28;20095;-72
2022/05/05 03:02:08;;;;;;;12.20;5.60;;;12.10;99.90;;;9.16;100.00;100893.53;5029236;28;20053;-72
2022/05/05 03:04:36;;;;;;;13.27;6.13;;;12.10;99.90;;;9.05;100.00;100889.25;5029573;28;20928;-72
2022/05/05 03:07:04;;;;;;;13.57;6.22;;;12.00;99.90;;;9.02;100.00;100899.59;5029266;28;20091;-72
2022/05/05 03:09:31;;;;;;;17.05;6.07;;;12.00;99.90;;;9.00;100.00;100895.19;5028839;28;20044;-72
2022/05/05 03:11:59;;;;;;;12.93;5.97;;;12.00;99.80;;;8.91;100.00;100889.88;5033424;28;20076;-73
2022/05/05 03:14:27;;;;;;;10.10;5.97;;;11.90;99.80;;;8.79;100.00;100897.47;5033574;28;20037;-72
2022/05/05 03:16:54;;;;;;;10.63;5.55;;;11.80;99.90;;;8.78;100.00;100891.19;5033393;28;20120;-72
2022/05/05 03:19:26;;;;;;;15.90;6.10;;;11.80;99.90;;;8.74;100.00;100894.41;5032403;28;20084;-72
2022/05/05 03:21:53;;;;;;;;;;;11.70;99.90;;;8.60;100.00;100894.03;5029156;28;20516;-72
2022/05/05 03:24:20;;;;;;;12.25;6.05;;;11.70;99.90;;;8.52;100.00;100902.09;5032940;28;19925;-72
2022/05/05 03:26:53;;;;;;;12.85;5.85;;;11.70;99.90;;;8.50;100.00;100904.13;5033079;28;20067;-72
2022/05/05 03:29:24;;;;;;;11.52;5.63;;;11.60;99.90;;;8.45;100.00;100903.75;5032927;28;20478;-72
2022/05/05 03:31:52;;;;;;;11.80;5.60;;;11.60;99.90;;;8.40;100.00;100904.22;5033132;28;20140;-72
2022/05/05 03:34:22;;;;;;;17.27;6.80;;;11.60;99.90;;;8.39;100.00;100905.22;5025515;28;20136;-72
2022/05/05 03:36:49;;;;;;;11.57;6.00;;;11.50;99.90;;;8.38;100.00;100910.81;5033254;28;20119;-72
2022/05/05 03:39:27;;;;;;;11.57;6.07;;;11.50;99.90;;;8.32;100.00;100911.44;5029543;28;20038;-72
2022/05/05 03:41:58;;;;;;;12.45;5.53;;;11.40;99.90;;;8.30;100.00;100911.63;5033177;28;20077;-72
2022/05/05 03:44:27;;;;;;;10.68;5.53;;;11.40;99.90;;;8.32;100.00;100914.16;5032753;28;20124;-72
2022/05/05 03:46:54;;;;;;;12.00;5.75;;;11.40;99.90;;;8.39;100.00;100912.50;5033132;28;20571;-72
2022/05/05 03:49:21;;;;;;;15.30;6.35;;;11.30;99.90;;;8.38;100.00;100911.66;5032577;28;20056;-72
2022/05/05 03:51:49;;;;;;;10.52;6.30;;;11.30;99.90;;;8.42;100.00;100923.06;5030631;28;20128;-72
2022/05/05 03:54:16;;;;;;;11.02;6.57;;;11.30;99.90;;;8.51;100.00;100921.25;5028976;28;20077;-72
2022/05/05 03:56:44;;;;;;;11.02;6.18;;;11.30;99.90;;;8.55;100.00;100919.94;5032784;28;20037;-73
2022/05/05 03:59:22;;;;;;;13.95;5.97;;;11.30;99.90;;;8.64;100.00;100926.22;5024015;28;20417;-72
2022/05/05 04:01:51;;;;;;;14.15;5.95;;;11.30;99.90;;;8.64;100.00;100926.22;5028563;28;20037;-72
2022/05/05 04:04:19;;;;;;;13.48;6.18;;;11.30;99.90;;;8.66;100.00;100924.22;5047485;28;20626;-72
2022/05/05 04:06:47;;;;;;;13.70;6.45;;;11.30;99.90;;;8.71;100.00;100924.56;5032615;28;20064;-72
2022/05/05 04:09:15;;;;;;;13.65;6.32;;;11.30;99.90;;;8.75;100.00;100923.22;5026813;28;20128;-73
2022/05/05 04:11:51;;;;;;;14.98;6.70;;;11.40;99.90;;;8.84;100.00;100926.84;5032298;28;20065;-72
2022/05/05 04:14:18;;;;;;;9.90;6.10;;;11.40;99.90;;;8.87;100.00;100930.09;5032298;28;20257;-72
2022/05/05 04:16:45;;;;;;;16.23;6.85;;;11.50;99.90;;;8.88;100.00;100931.78;5032550;28;20073;-72
2022/05/05 04:19:14;;;;;;;11.68;6.30;;;11.50;99.90;;;8.95;100.00;100923.84;5030935;28;20444;-72
2022/05/05 04:21:41;;;;;;;13.70;7.32;;;11.50;99.90;;;9.01;100.00;100934.03;5031223;28;20042;-72
2022/05/05 04:24:14;;;;;;;9.88;6.10;;;11.50;99.90;;;9.04;100.00;100935.56;5029051;28;20045;-72
2022/05/05 04:26:42;;;;;;;11.90;6.18;;;11.50;99.90;;;9.02;100.00;100940.31;5027050;28;20037;-72
2022/05/05 04:29:16;;;;;;;12.88;5.68;;;11.60;99.90;;;9.03;100.00;100939.31;5031509;28;20041;-72
2022/05/05 04:32:02;;;;;;;13.63;6.13;;;11.60;99.90;;;9.13;100.00;100946.28;5032139;28;20045;-72
2022/05/05 04:34:40;;;;;;;14.38;6.43;;;11.60;99.90;;;9.22;100.00;100943.63;5025363;28;20509;-72
2022/05/05 04:37:07;;;;;;;13.63;6.38;;;11.70;99.90;;;9.27;100.00;100947.53;5031935;28;20511;-72
2022/05/05 04:39:39;;;;;;;14.63;6.55;;;11.70;99.90;;;9.31;100.00;100946.19;5025590;28;20052;-72
2022/05/05 04:42:15;;;;;;;12.32;5.97;;;11.70;99.90;;;9.36;100.00;100949.22;5031747;28;20104;-72
2022/05/05 04:44:45;;;;;;;10.15;5.88;;;11.70;99.90;;;9.37;100.00;100944.66;5031972;28;20049;-72
2022/05/05 04:47:24;;;;;;;10.52;6.43;;;11.80;99.90;;;9.45;100.00;100949.28;5031692;28;20065;-72
2022/05/05 04:49:56;;;;;;;12.68;6.20;;;11.80;99.90;;;9.49;100.00;100947.91;5030086;28;20069;-74
2022/05/05 04:52:34;;;;;;;16.02;6.50;;;11.90;99.90;;;9.54;100.00;100945.56;5029971;28;20104;-73
2022/05/05 04:55:04;;;;;;;11.23;6.00;;;11.90;99.90;;;9.52;100.00;100947.56;5030685;28;20438;-73
2022/05/05 04:57:39;;;;;;;14.03;6.07;;;12.00;99.90;;;9.54;100.00;100946.41;5030511;28;20049;-73
2022/05/05 05:00:18;;;;;;;16.95;6.38;;;12.00;99.90;;;9.63;100.00;100949.13;5031640;28;20037;-73
2022/05/05 05:02:45;;;;;;;15.23;6.78;;;12.10;99.90;;;9.63;100.00;100949.97;5030983;28;20107;-74
2022/05/05 05:05:20;;;;;;;14.32;6.13;;;12.00;99.90;;;9.67;100.00;100958.63;5047069;28;20918;-74
2022/05/05 05:07:49;;;;;;;11.75;6.32;;;12.10;99.90;;;9.76;100.00;100965.78;5015704;28;20034;-73
2022/05/05 05:10:22;;;;;;;11.70;6.40;;;12.20;99.90;;;9.82;100.00;100961.53;5029590;28;20120;-73
2022/05/05 05:12:49;;;;;;;14.65;6.40;;;12.20;99.90;;;9.92;100.00;100967.69;5027467;28;20080;-73
2022/05/05 05:15:16;;;;;;;10.77;6.38;;;12.30;99.90;;;9.97;100.00;100973.44;5031522;28;20073;-74
2022/05/05 05:17:44;;;;;;;11.15;6.57;;;12.30;99.90;;;10.05;100.00;100981.63;5029458;28;20033;-75
2022/05/05 05:20:25;;;;;;;12.30;7.28;;;12.50;99.90;;;10.18;100.00;100976.53;5030175;28;20044;-72
2022/05/05 05:22:54;;;;;;;18.13;6.65;;;12.40;99.90;;;10.29;100.00;100974.47;5031424;28;20045;-72
2022/05/05 05:25:30;;;;;;;16.00;6.90;;;12.40;99.90;;;10.43;100.00;100979.22;5030560;28;20037;-74
2022/05/05 05:27:57;;;;;;;15.27;7.07;;;12.50;99.90;;;10.63;100.00;100979.72;5024042;28;20059;-73
2022/05/05 05:30:36;;;;;;;18.77;7.05;;;12.60;99.90;;;10.72;100.00;100984.13;5028595;28;20048;-73
2022/05/05 05:33:06;;;;;;;12.45;6.47;;;12.60;99.90;;;10.73;100.00;100987.69;5028648;28;20052;-73
2022/05/05 05:35:40;;;;;;;17.58;6.55;;;12.70;99.90;;;10.77;100.00;100983.59;5030415;28;20041;-73
2022/05/05 05:38:10;;;;;;;18.10;7.25;;;12.80;99.90;;;10.83;99.89;100982.88;5029673;28;20072;-73
2022/05/05 05:40:46;;;;;;;19.95;7.22;;;12.90;99.90;;;10.87;99.53;100991.53;5030408;28;20045;-73
2022/05/05 05:43:33;;;;;;;16.08;7.75;;;12.90;99.90;;;10.95;97.27;100992.38;5028181;28;20488;-74
2022/05/05 05:46:03;;;;;;;16.17;7.40;;;13.00;99.30;;;10.91;94.29;101001.09;5022656;28;20133;-74
2022/05/05 05:48:44;;;;;;;19.73;8.00;;;13.00;97.80;;;10.89;95.41;100995.81;5028001;28;20040;-73
2022/05/05 05:51:17;;;;;;;23.48;7.82;;;13.00;97.00;;;11.00;94.70;100993.72;5028270;28;20037;-73
2022/05/05 05:53:53;;;;;;;25.58;7.50;;;13.10;97.20;;;11.00;93.56;100996.44;5027100;28;20116;-74
2022/05/05 05:56:29;;;;;;;22.40;8.13;;;13.10;96.40;;;10.99;92.39;101001.06;5028107;28;20037;-73
2022/05/05 05:59:07;;;;;;;16.80;7.20;;;13.10;96.20;;;11.02;92.88;101005.28;5027842;28;20049;-74
2022/05/05 06:04:29;;;;;;;16.55;7.57;;;13.10;95.50;;;11.14;92.53;101004.75;5021174;28;20124;-73
2022/05/05 06:07:12;;;;;;;20.23;7.47;;;13.20;95.90;;;11.25;89.43;101006.25;5026165;28;20124;-74
2022/05/05 06:09:43;;;;;;;18.77;7.90;;;13.20;95.00;;;11.41;90.36;101007.19;5025975;28;20053;-74
2022/05/05 06:12:22;;;;;;;16.40;7.60;;;13.30;95.10;;;11.54;90.54;101010.19;5028838;28;20041;-73
2022/05/05 06:15:05;;;;;;;20.25;7.88;;;13.40;95.50;;;11.68;90.37;101017.59;5022152;28;20414;-73
2022/05/05 06:17:41;;;;;;;23.52;8.57;;;13.50;96.00;;;11.70;88.50;101023.69;5028229;28;20069;-74
2022/05/05 06:20:14;;;;;;;18.08;7.88;;;13.50;94.80;;;11.83;86.69;101019.56;5027422;28;20049;-74
2022/05/05 06:22:46;;;;;;;23.00;8.13;;;13.60;94.60;;;11.82;89.01;101023.28;5024601;28;20500;-74
2022/05/05 06:25:19;;;;;;;17.05;7.10;;;13.60;94.90;;;11.84;89.26;101029.41;5026320;28;20150;-73
2022/05/05 06:27:57;;;;;;;15.60;6.82;;;13.70;95.30;;;11.89;87.37;101024.28;5026835;28;20045;-74
2022/05/05 06:30:26;;;;;;;19.13;7.57;;;13.70;94.10;;;11.96;85.81;101029.91;5026216;28;20045;-74
2022/05/05 06:32:56;;;;;;;17.83;7.57;;;13.70;94.70;;;12.03;85.70;101026.28;5027163;28;20048;-74
2022/05/05 06:35:37;;;;;;;23.23;8.32;;;13.80;93.60;;;12.20;84.70;101023.41;5024937;28;20143;-74
2022/05/05 06:38:24;;;;;;;18.60;7.63;;;13.90;93.70;;;12.40;84.35;101021.88;5026471;28;20037;-74
2022/05/05 06:41:08;;;;;;;18.25;7.97;;;14.00;92.70;;;12.68;84.21;101029.47;5024889;28;20091;-74
2022/05/05 06:43:40;;;;;;;14.60;7.10;;;14.10;93.30;;;12.75;83.88;101033.13;5038913;28;20053;-73
2022/05/05 06:46:07;;;;;;;22.25;7.05;;;14.20;93.20;;;12.78;80.57;101035.50;5026704;28;20072;-74
2022/05/05 06:48:47;;;;;;;20.90;8.48;;;14.20;92.00;;;12.86;80.79;101032.69;5025086;28;20049;-74
2022/05/05 06:51:16;;;;;;;21.63;7.30;;;14.30;92.20;;;12.92;81.00;101039.28;5028313;28;20061;-74
2022/05/05 06:53:53;;;;;;;19.17;7.60;;;14.40;91.80;;;13.01;80.87;101043.63;5022172;28;20037;-74
2022/05/05 06:56:29;;;;;;;15.77;7.45;;;14.40;91.60;;;13.13;79.41;101044.00;5022285;28;20060;-74
2022/05/05 06:59:01;;;;;;;21.98;7.55;;;14.50;91.30;;;13.18;80.66;101044.28;5029057;28;20051;-74
2022/05/05 07:02:00;;;;;;;17.40;7.88;;;14.60;91.40;;;13.08;79.28;101050.03;5029075;28;20037;-74
2022/05/05 07:07:30;;;;;;;17.52;7.53;;;14.70;89.40;;;13.14;77.07;101059.38;5027496;28;20045;-73
2022/05/05 07:12:49;;;;;;;17.10;7.28;;;14.80;89.70;;;13.18;75.78;101057.13;5027954;28;20060;-73
2022/05/05 07:15:24;;;;;;;21.92;7.30;;;14.80;87.90;;;13.28;74.61;101055.78;5025317;28;20064;-73
2022/05/05 07:18:15;;;;;;;17.52;7.95;;;14.90;88.40;;;13.28;74.87;101055.78;5028069;28;20091;-73
2022/05/05 07:21:05;;;;;;;13.45;7.25;;;14.90;87.50;;;13.37;75.09;101061.19;5028259;28;20509;-73
2022/05/05 07:23:53;;;;;;;17.65;7.97;;;14.90;87.00;;;13.51;72.72;101059.47;5026066;28;20533;-73
2022/05/05 07:26:29;;;;;;;18.80;7.28;;;15.00;86.60;;;13.56;75.41;101065.22;5020481;28;20185;-73
2022/05/05 07:29:10;;;;;;;20.60;7.28;;;15.00;86.90;;;13.77;72.81;101065.28;5025958;28;20046;-72
2022/05/05 07:31:40;;;;;;;16.83;7.35;;;15.10;87.80;;;13.88;73.04;101061.19;5027863;28;20057;-73
2022/05/05 07:34:13;;;;;;;22.38;7.88;;;15.20;86.70;;;13.99;73.55;101073.50;5021721;28;20080;-73
2022/05/05 07:36:49;;;;;;;19.65;8.32;;;15.30;86.80;;;14.11;73.17;101069.25;5024197;28;20132;-73
2022/05/05 07:39:32;;;;;;;20.77;8.40;;;15.40;87.20;;;14.27;71.62;101070.88;5022395;28;20353;-73
2022/05/05 07:42:08;;;;;;;19.60;7.40;;;15.50;86.90;;;14.34;71.43;101068.22;5025548;28;20041;-73
2022/05/05 07:44:40;;;;;;;24.17;7.65;;;15.60;85.80;;;14.33;68.78;101072.81;5027935;28;20045;-72
2022/05/05 07:47:20;;;;;;;17.27;7.80;;;15.70;84.10;;;14.50;68.75;101067.06;5025599;28;20661;-73
2022/05/05 07:49:49;;;;;;;14.32;6.70;;;15.70;83.40;;;14.75;70.73;101064.78;5027366;28;20439;-73
2022/05/05 07:52:17;;;;;;;17.55;6.95;;;15.80;84.70;;;14.77;68.19;101074.50;5011022;28;20133;-73
2022/05/05 07:54:44;;;;;;;17.10;6.90;;;15.90;81.40;;;15.07;66.54;101074.31;5028362;28;20045;-73
2022/05/05 07:57:30;;;;;;;17.00;7.35;;;16.00;82.20;;;15.35;67.02;101076.16;5028536;28;20434;-73
2022/05/05 08:00:01;;;;;;;15.70;5.22;;;16.10;83.50;;;15.36;60.81;101077.84;5024338;28;20049;-73
2022/05/05 08:02:35;;;;;;;30.48;8.00;;;16.20;80.80;;;15.46;61.53;101083.81;5030712;28;20041;-72
2022/05/05 08:05:13;;;;;;;14.63;6.93;;;16.40;79.70;;;15.71;62.08;101083.31;5029850;28;20038;-73
2022/05/05 08:07:51;;;;;;;15.95;5.63;;;16.50;78.40;;;15.78;60.23;101082.31;5030058;28;20065;-73
2022/05/05 08:10:40;;;;;;;16.23;6.75;;;16.60;78.10;;;15.81;59.44;101086.53;5031578;28;20121;-73
2022/05/05 08:13:28;;;;;;;16.17;6.55;;;16.70;78.00;;;15.82;61.94;101089.09;5027402;28;20494;-72
2022/05/05 08:16:05;;;;;;;23.25;7.70;;;16.80;79.30;;;15.77;60.80;101091.59;5028720;28;20068;-73
2022/05/05 08:18:38;;;;;;;18.58;7.93;;;16.90;78.00;;;15.87;63.69;101090.38;5031355;28;20517;-73
2022/05/05 08:21:13;;;;;;;17.65;7.43;;;16.90;79.60;;;15.80;61.34;101090.31;5032954;28;20144;-73
2022/05/05 08:23:47;;;;;;;19.60;7.95;;;16.90;77.60;;;15.59;59.04;101088.50;5029276;28;20049;-73
2022/05/05 08:29:25;;;;;;;15.93;6.88;;;17.00;77.10;;;15.90;61.47;101090.81;5025978;28;20044;-76
2022/05/05 08:32:05;;;;;;;17.67;7.22;;;17.00;77.00;;;15.93;60.51;101093.13;5002439;22;20566;-79
2022/05/05 08:34:36;;;;;;;14.40;6.53;;;17.10;77.20;;;15.99;58.75;101091.44;4987146;28;20269;-79
2022/05/05 08:37:15;;;;;;;17.17;6.15;;;17.10;75.00;;;16.02;58.92;101094.63;4991961;28;20740;-79
2022/05/05 08:39:46;;;;;;;15.30;6.43;;;17.20;76.10;;;15.95;54.84;101095.66;4988304;28;20042;-79
2022/05/05 08:47:59;;;;;;;16.02;6.40;;;17.30;73.10;;;16.00;55.28;101104.97;4961877;28;20051;-78
2022/05/05 08:50:32;;;;;;;18.77;6.28;;;17.20;71.60;;;15.99;55.92;101095.06;4982444;28;20093;-79
2022/05/05 08:53:06;;;;;;;20.20;7.97;;;17.20;71.30;;;15.97;56.04;101105.41;4976099;28;20058;-79
2022/05/05 08:55:42;;;;;;;17.50;7.55;;;17.30;71.00;;;15.98;56.31;101098.84;4966028;28;20090;-78
2022/05/05 08:58:15;;;;;;;17.42;8.90;;;17.30;72.40;;;16.00;57.38;101106.88;4956293;28;20042;-79
2022/05/05 09:00:49;;;;;;;20.20;9.35;;;17.30;72.60;;;15.96;57.41;101103.69;4979693;28;20058;-79
2022/05/05 09:03:29;;;;;;;27.13;9.18;;;17.30;72.70;;;15.99;55.69;101105.19;4970336;28;21799;-79
2022/05/05 09:06:16;;;;;;;18.88;9.35;;;17.40;71.10;;;16.01;57.69;101108.56;4968828;28;20051;-78
2022/05/05 09:08:58;;;;;;;21.30;9.40;;;17.40;71.90;;;16.18;58.15;101100.78;4971448;28;20125;-79
2022/05/05 09:11:37;;;;;;;17.58;8.45;;;17.40;73.30;;;16.24;59.02;101102.75;4988189;28;20150;-79
2022/05/05 09:14:16;;;;;;;24.30;9.63;;;17.50;73.80;;;16.20;57.63;101102.31;4976245;28;20061;-79
2022/05/05 09:17:03;;;;;;;22.33;9.73;;;17.50;72.00;;;15.98;55.35;101104.34;4969605;28;20443;-79
2022/05/05 09:19:48;;;;;;;20.98;9.30;;;17.50;70.20;;;15.93;57.73;101103.25;4970844;28;20038;-79
2022/05/05 09:22:28;;;;;;;19.83;9.27;;;17.60;71.80;;;16.08;58.91;101098.44;4969005;28;20102;-79
2022/05/05 09:25:14;;;;;;;27.70;10.93;;;17.60;72.90;;;16.21;58.00;101111.38;4971620;28;20066;-79
2022/05/05 09:27:54;;;;;;;22.50;10.82;;;17.60;72.90;;;16.25;59.40;101101.66;4972065;28;20134;-79
2022/05/05 09:30:47;;;;;;;21.08;11.10;;;17.60;73.10;;;16.21;58.76;101103.16;4973615;28;20058;-78
2022/05/05 09:33:28;;;;;;;;;;;;;;;;;;;;;
2022/05/05 09:36:01;;;;;;;23.17;11.77;;;17.70;71.90;;;16.15;55.87;101103.97;4968624;28;20146;-79
2022/05/05 09:38:53;;;;;;;25.23;11.65;;;17.60;70.80;;;16.18;56.75;101098.06;4972582;28;20102;-79
2022/05/05 09:41:32;;;;;;;20.92;10.93;;;17.60;70.50;;;16.21;57.49;101106.72;4972616;28;20400;-79
2022/05/05 09:44:12;;;;;;;19.98;10.50;;;17.70;71.60;;;16.30;58.58;101106.56;4971331;28;20043;-79
2022/05/05 09:46:44;;;;;;;23.20;11.73;;;17.70;72.30;;;16.27;59.76;101107.78;4968429;28;20121;-79
2022/05/05 09:49:23;;;;;;;23.55;11.40;;;17.80;72.80;;;16.46;60.34;101106.16;4977576;28;20038;-79
2022/05/05 09:57:42;;;;;;;22.83;10.65;;;17.90;73.00;;;16.61;58.21;101105.97;4979307;28;20110;-78
2022/05/05 10:00:43;;;;;;;27.63;12.27;;;17.90;73.10;;;16.66;56.77;101108.06;4971920;28;20101;-79
2022/05/05 10:06:34;;;;;;;22.20;11.35;;;18.00;71.60;;;16.51;57.03;101111.88;4991201;28;20513;-79
2022/05/05 10:09:23;;;;;;;24.48;11.75;;;18.00;70.30;;;16.34;58.31;101113.31;4985984;28;20101;-78
2022/05/05 10:11:58;;;;;;;23.17;11.80;;;18.00;71.10;;;16.59;58.25;101111.66;4966069;28;20535;-79
2022/05/05 10:14:38;;;;;;;24.60;13.20;;;18.00;71.70;;;16.82;60.33;101104.94;4979135;28;20046;-78
2022/05/05 10:17:09;;;;;;;28.20;11.40;;;18.10;72.80;;;17.19;61.68;101100.69;4968681;28;20118;-82
2022/05/05 10:19:45;;;;;;;24.73;12.73;;;18.30;74.60;;;17.39;59.99;101105.28;4970017;28;20121;-82
2022/05/05 10:22:32;;;;;;;22.92;13.35;;;18.30;74.60;;;17.42;60.26;101096.63;4971538;28;20043;-82
2022/05/05 10:25:21;;;;;;;27.52;12.38;;;18.40;74.10;;;17.58;58.95;101098.88;4971160;28;20105;-82
2022/05/05 10:27:53;;;;;;;25.50;13.13;;;18.50;74.10;;;17.26;57.04;101106.16;4970179;28;20047;-82
2022/05/05 10:30:42;;;;;;;23.17;12.00;;;18.60;71.50;;;17.19;57.26;101097.94;4970949;28;20043;-82
2022/05/05 10:33:13;;;;;;;23.13;11.18;;;18.60;71.40;;;17.18;57.36;101107.25;4972393;28;20086;-82
2022/05/05 10:35:56;;;;;;;23.95;11.40;;;18.70;70.80;;;17.16;55.66;101100.25;4983638;28;20495;-82
2022/05/05 10:38:51;;;;;;;24.05;11.38;;;18.70;70.20;;;17.15;55.57;101104.94;4977959;28;20609;-82
2022/05/05 10:42:09;;;;;;;24.77;12.35;;;18.80;69.30;;;17.07;54.51;101105.13;4986976;28;20086;-79
2022/05/05 10:48:39;;;;;;;18.48;10.63;;;18.70;69.10;;;16.85;57.28;101098.16;4958840;28;20446;-82
2022/05/05 10:51:20;;;;;;;21.88;11.15;;;18.70;69.80;;;16.83;58.20;101101.16;4971198;28;20053;-79
2022/05/05 10:53:53;;;;;;;20.83;10.82;;;18.60;69.50;;;16.79;58.54;101097.06;4970791;28;20121;-79
2022/05/05 10:56:33;;;;;;;23.55;11.70;;;18.60;70.10;;;16.97;57.32;101097.31;4970705;28;20126;-79
2022/05/05 10:59:13;;;;;;;21.65;10.68;;;18.70;70.30;;;17.19;57.36;101086.94;4951657;28;20467;-79
2022/05/05 11:02:05;;;;;;;20.53;10.27;;;18.70;69.40;;;17.34;55.11;101091.34;4965335;28;20050;-79
2022/05/05 11:04:33;;;;;;;22.67;11.50;;;18.70;68.00;;;17.36;53.92;101089.22;4950570;29;20061;-79
2022/05/05 11:07:30;;;;;;;19.48;11.57;;;18.70;66.80;;;17.45;55.53;101093.41;4969488;28;20043;-79
2022/05/05 11:11:39;;;;;;;26.83;11.18;;;18.80;68.70;;;17.43;54.23;101101.03;4955955;28;20042;-79
2022/05/05 11:13:40;;;;;;;22.00;11.98;;;18.80;68.20;;;17.28;53.96;101103.19;4964786;28;20093;-79
2022/05/05 11:22:38;;;;;;;28.65;12.95;;;18.70;66.10;;;16.98;54.67;101096.28;4984684;28;20050;-82
2022/05/05 11:25:12;;;;;;;22.58;12.90;;;18.60;66.70;;;17.03;53.86;101112.13;4970196;28;20421;-82
2022/05/05 11:27:49;;;;;;;27.02;12.98;;;18.60;66.60;;;17.14;55.77;101100.47;4971676;28;20101;-82